sensor_id;sensor_type;location;lat;lon;timestamp;P1;durP1;ratioP1;P2;durP2;ratioP2
18897;SDS011;9581;49.484;8.556;2024-03-02T00:00:57;0.20;;;0.20;;
18897;SDS011;9581;49.484;8.556;2024-03-02T00:03:24;0.20;;;0.20;;
18897;SDS011;9581;49.484;8.556;2024-03-02T00:05:51;0.20;;;0.20;;
18897;SDS011;9581;49.484;8.556;2024-03-02T00:08:21;0.20;;;0.20;;
18897;SDS011;9581;49.484;8.556;2024-03-02T00:10:50;0.20;;;0.20;;
18897;SDS011;9581;49.484;8.556;2024-03-02T00:13:18;0.20;;;0.20;;
18897;SDS011;9581;49.484;8.556;2024-03-02T00:15:48;0.20;;;0.20;;
18897;SDS011;9581;49.484;8.556;2024-03-02T00:18:19;0.20;;;0.20;;
18897;SDS011;9581;49.484;8.556;2024-03-02T00:20:48;0.20;;;0.20;;
18897;SDS011;9581;49.484;8.556;2024-03-02T00:23:15;0.20;;;0.20;;
18897;SDS011;9581;49.484;8.556;2024-03-02T00:25:43;0.20;;;0.20;;
18897;SDS011;9581;49.484;8.556;2024-03-02T00:28:13;0.20;;;0.20;;
18897;SDS011;9581;49.484;8.556;2024-03-02T00:30:54;0.20;;;0.20;;
18897;SDS011;9581;49.484;8.556;2024-03-02T00:33:26;0.20;;;0.20;;
18897;SDS011;9581;49.484;8.556;2024-03-02T00:35:54;0.20;;;0.20;;
18897;SDS011;9581;49.484;8.556;2024-03-02T00:38:21;0.20;;;0.20;;
18897;SDS011;9581;49.484;8.556;2024-03-02T00:40:48;0.20;;;0.20;;
18897;SDS011;9581;49.484;8.556;2024-03-02T00:46:10;0.20;;;0.20;;
18897;SDS011;9581;49.484;8.556;2024-03-02T00:48:39;0.20;;;0.20;;
18897;SDS011;9581;49.484;8.556;2024-03-02T00:51:14;0.20;;;0.20;;
18897;SDS011;9581;49.484;8.556;2024-03-02T00:53:41;0.20;;;0.20;;
18897;SDS011;9581;49.484;8.556;2024-03-02T00:56:09;0.20;;;0.20;;
18897;SDS011;9581;49.484;8.556;2024-03-02T00:58:36;0.20;;;0.20;;
18897;SDS011;9581;49.484;8.556;2024-03-02T01:01:03;0.20;;;0.20;;
18897;SDS011;9581;49.484;8.556;2024-03-02T01:03:30;0.20;;;0.20;;
18897;SDS011;9581;49.484;8.556;2024-03-02T01:05:59;0.20;;;0.20;;
18897;SDS011;9581;49.484;8.556;2024-03-02T01:08:26;0.20;;;0.20;;
18897;SDS011;9581;49.484;8.556;2024-03-02T01:10:53;0.20;;;0.20;;
18897;SDS011;9581;49.484;8.556;2024-03-02T01:13:20;0.20;;;0.20;;
18897;SDS011;9581;49.484;8.556;2024-03-02T01:15:48;0.20;;;0.20;;
18897;SDS011;9581;49.484;8.556;2024-03-02T01:18:14;0.20;;;0.20;;
18897;SDS011;9581;49.484;8.556;2024-03-02T01:20:41;0.20;;;0.20;;
18897;SDS011;9581;49.484;8.556;2024-03-02T01:23:09;0.20;;;0.20;;
18897;SDS011;9581;49.484;8.556;2024-03-02T01:25:36;0.20;;;0.20;;
18897;SDS011;9581;49.484;8.556;2024-03-02T01:28:03;0.20;;;0.20;;
18897;SDS011;9581;49.484;8.556;2024-03-02T01:30:30;0.20;;;0.20;;
18897;SDS011;9581;49.484;8.556;2024-03-02T01:32:57;0.20;;;0.20;;
18897;SDS011;9581;49.484;8.556;2024-03-02T01:35:25;0.20;;;0.20;;
18897;SDS011;9581;49.484;8.556;2024-03-02T01:37:52;0.20;;;0.20;;
18897;SDS011;9581;49.484;8.556;2024-03-02T01:40:21;0.20;;;0.20;;
18897;SDS011;9581;49.484;8.556;2024-03-02T01:42:51;0.20;;;0.20;;
18897;SDS011;9581;49.484;8.556;2024-03-02T01:45:19;0.20;;;0.20;;
18897;SDS011;9581;49.484;8.556;2024-03-02T01:47:45;0.20;;;0.20;;
18897;SDS011;9581;49.484;8.556;2024-03-02T01:50:12;0.20;;;0.20;;
18897;SDS011;9581;49.484;8.556;2024-03-02T01:52:39;0.30;;;0.30;;
18897;SDS011;9581;49.484;8.556;2024-03-02T01:55:07;0.20;;;0.20;;
18897;SDS011;9581;49.484;8.556;2024-03-02T01:57:36;0.20;;;0.20;;
18897;SDS011;9581;49.484;8.556;2024-03-02T02:00:03;0.20;;;0.20;;
18897;SDS011;9581;49.484;8.556;2024-03-02T02:02:31;0.20;;;0.20;;
18897;SDS011;9581;49.484;8.556;2024-03-02T02:04:57;0.20;;;0.20;;
18897;SDS011;9581;49.484;8.556;2024-03-02T02:07:24;0.20;;;0.20;;
18897;SDS011;9581;49.484;8.556;2024-03-02T02:09:51;0.20;;;0.20;;
18897;SDS011;9581;49.484;8.556;2024-03-02T02:12:17;0.20;;;0.20;;
18897;SDS011;9581;49.484;8.556;2024-03-02T02:14:48;0.20;;;0.20;;
18897;SDS011;9581;49.484;8.556;2024-03-02T02:17:15;0.20;;;0.20;;
18897;SDS011;9581;49.484;8.556;2024-03-02T02:19:42;0.20;;;0.20;;
18897;SDS011;9581;49.484;8.556;2024-03-02T02:22:10;0.20;;;0.20;;
18897;SDS011;9581;49.484;8.556;2024-03-02T02:24:39;0.20;;;0.20;;
18897;SDS011;9581;49.484;8.556;2024-03-02T02:27:06;0.20;;;0.20;;
18897;SDS011;9581;49.484;8.556;2024-03-02T02:29:33;0.20;;;0.20;;
18897;SDS011;9581;49.484;8.556;2024-03-02T02:31:59;0.20;;;0.20;;
18897;SDS011;9581;49.484;8.556;2024-03-02T02:34:26;0.20;;;0.20;;
18897;SDS011;9581;49.484;8.556;2024-03-02T02:36:53;0.20;;;0.20;;
18897;SDS011;9581;49.484;8.556;2024-03-02T02:39:21;0.20;;;0.20;;
18897;SDS011;9581;49.484;8.556;2024-03-02T02:41:48;0.30;;;0.30;;
18897;SDS011;9581;49.484;8.556;2024-03-02T02:44:15;0.20;;;0.20;;
18897;SDS011;9581;49.484;8.556;2024-03-02T02:46:42;0.20;;;0.20;;
18897;SDS011;9581;49.484;8.556;2024-03-02T02:49:08;0.20;;;0.20;;
18897;SDS011;9581;49.484;8.556;2024-03-02T02:51:35;0.20;;;0.20;;
18897;SDS011;9581;49.484;8.556;2024-03-02T02:54:02;0.20;;;0.20;;
18897;SDS011;9581;49.484;8.556;2024-03-02T02:56:30;0.20;;;0.20;;
18897;SDS011;9581;49.484;8.556;2024-03-02T02:58:57;0.20;;;0.20;;
18897;SDS011;9581;49.484;8.556;2024-03-02T03:01:23;0.20;;;0.20;;
18897;SDS011;9581;49.484;8.556;2024-03-02T03:03:50;0.20;;;0.20;;
18897;SDS011;9581;49.484;8.556;2024-03-02T03:06:17;0.20;;;0.20;;
18897;SDS011;9581;49.484;8.556;2024-03-02T03:08:43;0.20;;;0.20;;
18897;SDS011;9581;49.484;8.556;2024-03-02T03:11:10;0.20;;;0.20;;
18897;SDS011;9581;49.484;8.556;2024-03-02T03:13:38;0.20;;;0.20;;
18897;SDS011;9581;49.484;8.556;2024-03-02T03:16:05;0.20;;;0.20;;
18897;SDS011;9581;49.484;8.556;2024-03-02T03:18:32;0.20;;;0.20;;
18897;SDS011;9581;49.484;8.556;2024-03-02T03:20:59;0.20;;;0.20;;
18897;SDS011;9581;49.484;8.556;2024-03-02T03:23:25;0.20;;;0.20;;
18897;SDS011;9581;49.484;8.556;2024-03-02T03:25:52;0.20;;;0.20;;
18897;SDS011;9581;49.484;8.556;2024-03-02T03:28:19;0.20;;;0.20;;
18897;SDS011;9581;49.484;8.556;2024-03-02T03:30:47;0.20;;;0.20;;
18897;SDS011;9581;49.484;8.556;2024-03-02T03:33:13;0.20;;;0.20;;
18897;SDS011;9581;49.484;8.556;2024-03-02T03:35:40;0.20;;;0.20;;
18897;SDS011;9581;49.484;8.556;2024-03-02T03:38:07;0.20;;;0.20;;
18897;SDS011;9581;49.484;8.556;2024-03-02T03:40:33;0.20;;;0.20;;
18897;SDS011;9581;49.484;8.556;2024-03-02T03:43:00;0.20;;;0.20;;
18897;SDS011;9581;49.484;8.556;2024-03-02T03:45:27;0.20;;;0.20;;
18897;SDS011;9581;49.484;8.556;2024-03-02T03:47:56;0.20;;;0.20;;
18897;SDS011;9581;49.484;8.556;2024-03-02T03:50:23;0.20;;;0.20;;
18897;SDS011;9581;49.484;8.556;2024-03-02T03:52:50;0.20;;;0.20;;
18897;SDS011;9581;49.484;8.556;2024-03-02T03:55:17;0.20;;;0.20;;
18897;SDS011;9581;49.484;8.556;2024-03-02T03:57:44;0.20;;;0.20;;
18897;SDS011;9581;49.484;8.556;2024-03-02T04:00:11;0.20;;;0.20;;
18897;SDS011;9581;49.484;8.556;2024-03-02T04:02:38;0.20;;;0.20;;
18897;SDS011;9581;49.484;8.556;2024-03-02T04:05:06;0.20;;;0.20;;
18897;SDS011;9581;49.484;8.556;2024-03-02T04:07:35;0.20;;;0.20;;
18897;SDS011;9581;49.484;8.556;2024-03-02T04:10:06;0.20;;;0.20;;
18897;SDS011;9581;49.484;8.556;2024-03-02T04:12:34;0.20;;;0.20;;
18897;SDS011;9581;49.484;8.556;2024-03-02T04:15:01;0.20;;;0.20;;
18897;SDS011;9581;49.484;8.556;2024-03-02T04:17:29;0.20;;;0.20;;
18897;SDS011;9581;49.484;8.556;2024-03-02T04:19:57;0.20;;;0.20;;
18897;SDS011;9581;49.484;8.556;2024-03-02T04:22:25;0.20;;;0.20;;
18897;SDS011;9581;49.484;8.556;2024-03-02T04:24:52;0.20;;;0.20;;
18897;SDS011;9581;49.484;8.556;2024-03-02T04:27:19;0.20;;;0.20;;
18897;SDS011;9581;49.484;8.556;2024-03-02T04:29:45;0.20;;;0.20;;
18897;SDS011;9581;49.484;8.556;2024-03-02T04:32:12;0.20;;;0.20;;
18897;SDS011;9581;49.484;8.556;2024-03-02T04:34:39;0.20;;;0.20;;
18897;SDS011;9581;49.484;8.556;2024-03-02T04:37:05;0.20;;;0.20;;
18897;SDS011;9581;49.484;8.556;2024-03-02T04:39:35;0.20;;;0.20;;
18897;SDS011;9581;49.484;8.556;2024-03-02T04:42:02;0.20;;;0.20;;
18897;SDS011;9581;49.484;8.556;2024-03-02T04:44:28;0.20;;;0.20;;
18897;SDS011;9581;49.484;8.556;2024-03-02T04:46:55;0.20;;;0.20;;
18897;SDS011;9581;49.484;8.556;2024-03-02T04:49:22;0.20;;;0.20;;
18897;SDS011;9581;49.484;8.556;2024-03-02T04:51:49;0.20;;;0.20;;
18897;SDS011;9581;49.484;8.556;2024-03-02T04:54:16;0.20;;;0.20;;
18897;SDS011;9581;49.484;8.556;2024-03-02T04:56:44;0.30;;;0.30;;
18897;SDS011;9581;49.484;8.556;2024-03-02T04:59:14;0.20;;;0.20;;
18897;SDS011;9581;49.484;8.556;2024-03-02T05:01:41;0.20;;;0.20;;
18897;SDS011;9581;49.484;8.556;2024-03-02T05:04:08;0.20;;;0.20;;
18897;SDS011;9581;49.484;8.556;2024-03-02T05:06:36;0.20;;;0.20;;
18897;SDS011;9581;49.484;8.556;2024-03-02T05:09:04;0.20;;;0.20;;
18897;SDS011;9581;49.484;8.556;2024-03-02T05:11:30;0.20;;;0.20;;
18897;SDS011;9581;49.484;8.556;2024-03-02T05:14:19;0.20;;;0.20;;
18897;SDS011;9581;49.484;8.556;2024-03-02T05:16:46;0.20;;;0.20;;
18897;SDS011;9581;49.484;8.556;2024-03-02T05:19:12;0.30;;;0.30;;
18897;SDS011;9581;49.484;8.556;2024-03-02T05:21:39;0.20;;;0.20;;
18897;SDS011;9581;49.484;8.556;2024-03-02T05:24:06;0.20;;;0.20;;
18897;SDS011;9581;49.484;8.556;2024-03-02T05:26:33;0.20;;;0.20;;
18897;SDS011;9581;49.484;8.556;2024-03-02T05:28:59;0.20;;;0.20;;
18897;SDS011;9581;49.484;8.556;2024-03-02T05:31:27;0.20;;;0.20;;
18897;SDS011;9581;49.484;8.556;2024-03-02T05:33:54;0.20;;;0.20;;
18897;SDS011;9581;49.484;8.556;2024-03-02T05:36:21;0.23;;;0.23;;
18897;SDS011;9581;49.484;8.556;2024-03-02T05:38:47;0.30;;;0.30;;
18897;SDS011;9581;49.484;8.556;2024-03-02T05:41:14;0.20;;;0.20;;
18897;SDS011;9581;49.484;8.556;2024-03-02T05:43:41;0.20;;;0.20;;
18897;SDS011;9581;49.484;8.556;2024-03-02T05:46:07;0.20;;;0.20;;
18897;SDS011;9581;49.484;8.556;2024-03-02T05:48:35;0.20;;;0.20;;
18897;SDS011;9581;49.484;8.556;2024-03-02T05:51:02;0.20;;;0.20;;
18897;SDS011;9581;49.484;8.556;2024-03-02T05:53:29;0.20;;;0.20;;
18897;SDS011;9581;49.484;8.556;2024-03-02T05:55:56;0.20;;;0.20;;
18897;SDS011;9581;49.484;8.556;2024-03-02T05:58:22;0.20;;;0.20;;
18897;SDS011;9581;49.484;8.556;2024-03-02T06:01:02;0.20;;;0.20;;
18897;SDS011;9581;49.484;8.556;2024-03-02T06:03:29;0.20;;;0.20;;
18897;SDS011;9581;49.484;8.556;2024-03-02T06:05:57;0.30;;;0.30;;
18897;SDS011;9581;49.484;8.556;2024-03-02T06:08:24;0.20;;;0.20;;
18897;SDS011;9581;49.484;8.556;2024-03-02T06:10:51;0.30;;;0.30;;
18897;SDS011;9581;49.484;8.556;2024-03-02T06:13:18;0.20;;;0.20;;
18897;SDS011;9581;49.484;8.556;2024-03-02T06:15:44;0.20;;;0.20;;
18897;SDS011;9581;49.484;8.556;2024-03-02T06:18:11;0.20;;;0.20;;
18897;SDS011;9581;49.484;8.556;2024-03-02T06:20:38;0.20;;;0.20;;
18897;SDS011;9581;49.484;8.556;2024-03-02T06:23:06;0.30;;;0.30;;
18897;SDS011;9581;49.484;8.556;2024-03-02T06:25:32;0.30;;;0.30;;
18897;SDS011;9581;49.484;8.556;2024-03-02T06:27:59;0.20;;;0.20;;
18897;SDS011;9581;49.484;8.556;2024-03-02T06:30:26;0.20;;;0.20;;
18897;SDS011;9581;49.484;8.556;2024-03-02T06:32:52;0.20;;;0.20;;
18897;SDS011;9581;49.484;8.556;2024-03-02T06:35:19;0.20;;;0.20;;
18897;SDS011;9581;49.484;8.556;2024-03-02T06:37:46;0.20;;;0.20;;
18897;SDS011;9581;49.484;8.556;2024-03-02T06:40:14;0.20;;;0.20;;
18897;SDS011;9581;49.484;8.556;2024-03-02T06:42:40;0.20;;;0.20;;
18897;SDS011;9581;49.484;8.556;2024-03-02T06:45:07;0.20;;;0.20;;
18897;SDS011;9581;49.484;8.556;2024-03-02T06:47:34;0.20;;;0.20;;
18897;SDS011;9581;49.484;8.556;2024-03-02T06:50:01;0.20;;;0.20;;
18897;SDS011;9581;49.484;8.556;2024-03-02T06:52:27;0.20;;;0.20;;
18897;SDS011;9581;49.484;8.556;2024-03-02T06:54:54;0.20;;;0.20;;
18897;SDS011;9581;49.484;8.556;2024-03-02T06:57:22;0.20;;;0.20;;
18897;SDS011;9581;49.484;8.556;2024-03-02T06:59:49;0.20;;;0.20;;
18897;SDS011;9581;49.484;8.556;2024-03-02T07:02:18;0.20;;;0.20;;
18897;SDS011;9581;49.484;8.556;2024-03-02T07:04:45;0.20;;;0.20;;
18897;SDS011;9581;49.484;8.556;2024-03-02T07:07:12;0.20;;;0.20;;
18897;SDS011;9581;49.484;8.556;2024-03-02T07:09:39;0.20;;;0.20;;
18897;SDS011;9581;49.484;8.556;2024-03-02T07:12:05;0.20;;;0.20;;
18897;SDS011;9581;49.484;8.556;2024-03-02T07:14:34;0.20;;;0.20;;
18897;SDS011;9581;49.484;8.556;2024-03-02T07:17:17;0.20;;;0.20;;
18897;SDS011;9581;49.484;8.556;2024-03-02T07:19:44;0.20;;;0.20;;
18897;SDS011;9581;49.484;8.556;2024-03-02T07:22:11;0.20;;;0.20;;
18897;SDS011;9581;49.484;8.556;2024-03-02T07:24:40;0.20;;;0.20;;
18897;SDS011;9581;49.484;8.556;2024-03-02T07:27:08;0.20;;;0.20;;
18897;SDS011;9581;49.484;8.556;2024-03-02T07:29:36;0.20;;;0.20;;
18897;SDS011;9581;49.484;8.556;2024-03-02T07:32:03;0.20;;;0.20;;
18897;SDS011;9581;49.484;8.556;2024-03-02T07:34:30;0.20;;;0.20;;
18897;SDS011;9581;49.484;8.556;2024-03-02T07:36:56;0.20;;;0.20;;
18897;SDS011;9581;49.484;8.556;2024-03-02T07:39:23;0.27;;;0.27;;
18897;SDS011;9581;49.484;8.556;2024-03-02T07:41:50;0.20;;;0.20;;
18897;SDS011;9581;49.484;8.556;2024-03-02T07:44:17;0.20;;;0.20;;
18897;SDS011;9581;49.484;8.556;2024-03-02T07:46:46;0.20;;;0.20;;
18897;SDS011;9581;49.484;8.556;2024-03-02T07:49:14;0.20;;;0.20;;
18897;SDS011;9581;49.484;8.556;2024-03-02T07:51:42;0.20;;;0.20;;
18897;SDS011;9581;49.484;8.556;2024-03-02T07:54:09;0.20;;;0.20;;
18897;SDS011;9581;49.484;8.556;2024-03-02T07:56:35;0.20;;;0.20;;
18897;SDS011;9581;49.484;8.556;2024-03-02T07:59:02;0.20;;;0.20;;
18897;SDS011;9581;49.484;8.556;2024-03-02T08:01:30;0.20;;;0.20;;
18897;SDS011;9581;49.484;8.556;2024-03-02T08:03:59;0.20;;;0.20;;
18897;SDS011;9581;49.484;8.556;2024-03-02T08:06:29;0.20;;;0.20;;
18897;SDS011;9581;49.484;8.556;2024-03-02T08:08:56;0.20;;;0.20;;
18897;SDS011;9581;49.484;8.556;2024-03-02T08:11:23;0.20;;;0.20;;
18897;SDS011;9581;49.484;8.556;2024-03-02T08:13:50;0.20;;;0.20;;
18897;SDS011;9581;49.484;8.556;2024-03-02T08:16:19;0.20;;;0.20;;
18897;SDS011;9581;49.484;8.556;2024-03-02T08:18:46;0.20;;;0.20;;
18897;SDS011;9581;49.484;8.556;2024-03-02T08:21:14;0.20;;;0.20;;
18897;SDS011;9581;49.484;8.556;2024-03-02T08:23:41;0.20;;;0.20;;
18897;SDS011;9581;49.484;8.556;2024-03-02T08:26:08;0.20;;;0.20;;
18897;SDS011;9581;49.484;8.556;2024-03-02T08:28:35;0.20;;;0.20;;
18897;SDS011;9581;49.484;8.556;2024-03-02T08:31:02;0.20;;;0.20;;
18897;SDS011;9581;49.484;8.556;2024-03-02T08:33:29;0.10;;;0.10;;
18897;SDS011;9581;49.484;8.556;2024-03-02T08:35:56;0.10;;;0.10;;
18897;SDS011;9581;49.484;8.556;2024-03-02T08:38:24;0.10;;;0.10;;
18897;SDS011;9581;49.484;8.556;2024-03-02T08:40:50;0.20;;;0.20;;
18897;SDS011;9581;49.484;8.556;2024-03-02T08:43:18;0.10;;;0.10;;
18897;SDS011;9581;49.484;8.556;2024-03-02T08:45:47;0.20;;;0.20;;
18897;SDS011;9581;49.484;8.556;2024-03-02T08:48:15;0.10;;;0.10;;
18897;SDS011;9581;49.484;8.556;2024-03-02T08:50:42;0.10;;;0.10;;
18897;SDS011;9581;49.484;8.556;2024-03-02T08:53:09;0.10;;;0.10;;
18897;SDS011;9581;49.484;8.556;2024-03-02T08:55:37;0.20;;;0.20;;
18897;SDS011;9581;49.484;8.556;2024-03-02T08:58:03;0.10;;;0.10;;
18897;SDS011;9581;49.484;8.556;2024-03-02T09:00:31;0.10;;;0.10;;
18897;SDS011;9581;49.484;8.556;2024-03-02T09:02:57;0.10;;;0.10;;
18897;SDS011;9581;49.484;8.556;2024-03-02T09:05:24;0.10;;;0.10;;
18897;SDS011;9581;49.484;8.556;2024-03-02T09:07:51;0.10;;;0.10;;
18897;SDS011;9581;49.484;8.556;2024-03-02T09:10:17;0.10;;;0.10;;
18897;SDS011;9581;49.484;8.556;2024-03-02T09:12:45;0.10;;;0.10;;
18897;SDS011;9581;49.484;8.556;2024-03-02T09:15:12;0.10;;;0.10;;
18897;SDS011;9581;49.484;8.556;2024-03-02T09:17:39;0.10;;;0.10;;
18897;SDS011;9581;49.484;8.556;2024-03-02T09:20:06;0.10;;;0.10;;
18897;SDS011;9581;49.484;8.556;2024-03-02T09:22:33;0.10;;;0.10;;
18897;SDS011;9581;49.484;8.556;2024-03-02T09:24:59;0.10;;;0.10;;
18897;SDS011;9581;49.484;8.556;2024-03-02T09:27:26;0.10;;;0.10;;
18897;SDS011;9581;49.484;8.556;2024-03-02T09:29:54;0.10;;;0.10;;
18897;SDS011;9581;49.484;8.556;2024-03-02T09:32:21;0.10;;;0.10;;
18897;SDS011;9581;49.484;8.556;2024-03-02T09:34:48;0.10;;;0.10;;
18897;SDS011;9581;49.484;8.556;2024-03-02T09:37:15;0.10;;;0.10;;
18897;SDS011;9581;49.484;8.556;2024-03-02T09:39:43;0.10;;;0.10;;
18897;SDS011;9581;49.484;8.556;2024-03-02T09:42:10;0.10;;;0.10;;
18897;SDS011;9581;49.484;8.556;2024-03-02T09:44:37;0.10;;;0.10;;
18897;SDS011;9581;49.484;8.556;2024-03-02T09:47:06;0.10;;;0.10;;
18897;SDS011;9581;49.484;8.556;2024-03-02T09:49:33;0.10;;;0.10;;
18897;SDS011;9581;49.484;8.556;2024-03-02T09:52:00;0.10;;;0.10;;
18897;SDS011;9581;49.484;8.556;2024-03-02T09:54:29;0.10;;;0.10;;
18897;SDS011;9581;49.484;8.556;2024-03-02T09:56:55;0.10;;;0.10;;
18897;SDS011;9581;49.484;8.556;2024-03-02T09:59:22;0.10;;;0.10;;
18897;SDS011;9581;49.484;8.556;2024-03-02T10:01:55;0.10;;;0.10;;
18897;SDS011;9581;49.484;8.556;2024-03-02T10:04:24;0.10;;;0.10;;
18897;SDS011;9581;49.484;8.556;2024-03-02T10:06:52;0.10;;;0.10;;
18897;SDS011;9581;49.484;8.556;2024-03-02T10:09:36;0.10;;;0.10;;
18897;SDS011;9581;49.484;8.556;2024-03-02T10:12:03;0.10;;;0.10;;
18897;SDS011;9581;49.484;8.556;2024-03-02T10:14:30;0.00;;;0.00;;
18897;SDS011;9581;49.484;8.556;2024-03-02T10:17:01;0.10;;;0.10;;
18897;SDS011;9581;49.484;8.556;2024-03-02T10:19:30;0.00;;;0.00;;
18897;SDS011;9581;49.484;8.556;2024-03-02T10:21:58;0.00;;;0.00;;
18897;SDS011;9581;49.484;8.556;2024-03-02T10:24:25;0.00;;;0.00;;
18897;SDS011;9581;49.484;8.556;2024-03-02T10:26:52;0.00;;;0.00;;
18897;SDS011;9581;49.484;8.556;2024-03-02T10:29:19;0.00;;;0.00;;
18897;SDS011;9581;49.484;8.556;2024-03-02T10:31:46;0.00;;;0.00;;
18897;SDS011;9581;49.484;8.556;2024-03-02T10:34:13;0.00;;;0.00;;
18897;SDS011;9581;49.484;8.556;2024-03-02T10:36:42;0.00;;;0.00;;
18897;SDS011;9581;49.484;8.556;2024-03-02T10:39:10;0.00;;;0.00;;
18897;SDS011;9581;49.484;8.556;2024-03-02T10:41:39;0.00;;;0.00;;
18897;SDS011;9581;49.484;8.556;2024-03-02T10:44:06;0.00;;;0.00;;
18897;SDS011;9581;49.484;8.556;2024-03-02T10:46:35;0.00;;;0.00;;
18897;SDS011;9581;49.484;8.556;2024-03-02T10:49:03;0.00;;;0.00;;
18897;SDS011;9581;49.484;8.556;2024-03-02T10:51:31;0.00;;;0.00;;
18897;SDS011;9581;49.484;8.556;2024-03-02T10:54:00;0.00;;;0.00;;
18897;SDS011;9581;49.484;8.556;2024-03-02T10:56:28;0.00;;;0.00;;
18897;SDS011;9581;49.484;8.556;2024-03-02T10:59:00;0.00;;;0.00;;
18897;SDS011;9581;49.484;8.556;2024-03-02T11:01:29;0.00;;;0.00;;
18897;SDS011;9581;49.484;8.556;2024-03-02T11:03:57;0.00;;;0.00;;
18897;SDS011;9581;49.484;8.556;2024-03-02T11:06:25;0.00;;;0.00;;
18897;SDS011;9581;49.484;8.556;2024-03-02T11:08:54;0.00;;;0.00;;
18897;SDS011;9581;49.484;8.556;2024-03-02T11:11:27;0.00;;;0.00;;
18897;SDS011;9581;49.484;8.556;2024-03-02T11:14:00;0.00;;;0.00;;
18897;SDS011;9581;49.484;8.556;2024-03-02T11:16:33;0.00;;;0.00;;
18897;SDS011;9581;49.484;8.556;2024-03-02T11:19:02;0.00;;;0.00;;
18897;SDS011;9581;49.484;8.556;2024-03-02T11:21:32;0.00;;;0.00;;
18897;SDS011;9581;49.484;8.556;2024-03-02T11:23:59;0.00;;;0.00;;
18897;SDS011;9581;49.484;8.556;2024-03-02T11:26:28;0.00;;;0.00;;
18897;SDS011;9581;49.484;8.556;2024-03-02T11:29:03;0.00;;;0.00;;
18897;SDS011;9581;49.484;8.556;2024-03-02T11:34:29;0.00;;;0.00;;
18897;SDS011;9581;49.484;8.556;2024-03-02T11:36:56;0.17;;;0.17;;
18897;SDS011;9581;49.484;8.556;2024-03-02T11:39:24;0.00;;;0.00;;
18897;SDS011;9581;49.484;8.556;2024-03-02T11:41:52;0.00;;;0.00;;
18897;SDS011;9581;49.484;8.556;2024-03-02T11:44:19;0.00;;;0.00;;
18897;SDS011;9581;49.484;8.556;2024-03-02T11:46:46;0.00;;;0.00;;
18897;SDS011;9581;49.484;8.556;2024-03-02T11:49:20;0.00;;;0.00;;
18897;SDS011;9581;49.484;8.556;2024-03-02T11:52:03;0.00;;;0.00;;
18897;SDS011;9581;49.484;8.556;2024-03-02T11:54:31;0.00;;;0.00;;
18897;SDS011;9581;49.484;8.556;2024-03-02T11:57:00;0.00;;;0.00;;
18897;SDS011;9581;49.484;8.556;2024-03-02T11:59:28;0.00;;;0.00;;
18897;SDS011;9581;49.484;8.556;2024-03-02T12:01:55;0.00;;;0.00;;
18897;SDS011;9581;49.484;8.556;2024-03-02T12:04:22;0.00;;;0.00;;
18897;SDS011;9581;49.484;8.556;2024-03-02T12:06:53;0.00;;;0.00;;
18897;SDS011;9581;49.484;8.556;2024-03-02T12:09:21;0.00;;;0.00;;
18897;SDS011;9581;49.484;8.556;2024-03-02T12:11:47;0.00;;;0.00;;
18897;SDS011;9581;49.484;8.556;2024-03-02T12:14:15;0.00;;;0.00;;
18897;SDS011;9581;49.484;8.556;2024-03-02T12:16:43;0.00;;;0.00;;
18897;SDS011;9581;49.484;8.556;2024-03-02T12:19:10;0.00;;;0.00;;
18897;SDS011;9581;49.484;8.556;2024-03-02T12:21:36;0.00;;;0.00;;
18897;SDS011;9581;49.484;8.556;2024-03-02T12:24:04;0.00;;;0.00;;
18897;SDS011;9581;49.484;8.556;2024-03-02T12:26:30;0.00;;;0.00;;
18897;SDS011;9581;49.484;8.556;2024-03-02T12:28:58;0.00;;;0.00;;
18897;SDS011;9581;49.484;8.556;2024-03-02T12:31:26;0.00;;;0.00;;
18897;SDS011;9581;49.484;8.556;2024-03-02T12:33:52;0.00;;;0.00;;
18897;SDS011;9581;49.484;8.556;2024-03-02T12:36:20;0.00;;;0.00;;
18897;SDS011;9581;49.484;8.556;2024-03-02T12:38:48;0.00;;;0.00;;
18897;SDS011;9581;49.484;8.556;2024-03-02T12:41:16;0.10;;;0.10;;
18897;SDS011;9581;49.484;8.556;2024-03-02T12:43:42;0.00;;;0.00;;
18897;SDS011;9581;49.484;8.556;2024-03-02T12:46:10;0.00;;;0.00;;
18897;SDS011;9581;49.484;8.556;2024-03-02T12:48:38;0.00;;;0.00;;
18897;SDS011;9581;49.484;8.556;2024-03-02T12:51:07;0.00;;;0.00;;
18897;SDS011;9581;49.484;8.556;2024-03-02T12:53:33;0.00;;;0.00;;
18897;SDS011;9581;49.484;8.556;2024-03-02T12:56:00;0.00;;;0.00;;
18897;SDS011;9581;49.484;8.556;2024-03-02T12:58:29;0.00;;;0.00;;
18897;SDS011;9581;49.484;8.556;2024-03-02T13:01:07;0.00;;;0.00;;
18897;SDS011;9581;49.484;8.556;2024-03-02T13:03:34;0.10;;;0.10;;
18897;SDS011;9581;49.484;8.556;2024-03-02T13:06:03;0.00;;;0.00;;
18897;SDS011;9581;49.484;8.556;2024-03-02T13:08:31;0.10;;;0.10;;
18897;SDS011;9581;49.484;8.556;2024-03-02T13:10:58;0.10;;;0.10;;
18897;SDS011;9581;49.484;8.556;2024-03-02T13:13:25;0.00;;;0.00;;
18897;SDS011;9581;49.484;8.556;2024-03-02T13:15:54;0.10;;;0.10;;
18897;SDS011;9581;49.484;8.556;2024-03-02T13:18:21;0.00;;;0.00;;
18897;SDS011;9581;49.484;8.556;2024-03-02T13:20:48;0.00;;;0.00;;
18897;SDS011;9581;49.484;8.556;2024-03-02T13:23:16;0.00;;;0.00;;
18897;SDS011;9581;49.484;8.556;2024-03-02T13:25:43;0.00;;;0.00;;
18897;SDS011;9581;49.484;8.556;2024-03-02T13:28:12;0.10;;;0.10;;
18897;SDS011;9581;49.484;8.556;2024-03-02T13:30:39;0.10;;;0.10;;
18897;SDS011;9581;49.484;8.556;2024-03-02T13:33:06;0.05;;;0.05;;
18897;SDS011;9581;49.484;8.556;2024-03-02T13:35:32;0.00;;;0.00;;
18897;SDS011;9581;49.484;8.556;2024-03-02T13:37:59;0.10;;;0.10;;
18897;SDS011;9581;49.484;8.556;2024-03-02T13:40:27;0.00;;;0.00;;
18897;SDS011;9581;49.484;8.556;2024-03-02T13:42:55;0.10;;;0.10;;
18897;SDS011;9581;49.484;8.556;2024-03-02T13:45:22;0.00;;;0.00;;
18897;SDS011;9581;49.484;8.556;2024-03-02T13:47:49;0.00;;;0.00;;
18897;SDS011;9581;49.484;8.556;2024-03-02T13:50:17;0.10;;;0.10;;
18897;SDS011;9581;49.484;8.556;2024-03-02T13:52:43;0.00;;;0.00;;
18897;SDS011;9581;49.484;8.556;2024-03-02T13:55:10;0.00;;;0.00;;
18897;SDS011;9581;49.484;8.556;2024-03-02T13:57:38;0.00;;;0.00;;
18897;SDS011;9581;49.484;8.556;2024-03-02T14:00:05;0.05;;;0.05;;
18897;SDS011;9581;49.484;8.556;2024-03-02T14:02:35;0.10;;;0.10;;
18897;SDS011;9581;49.484;8.556;2024-03-02T14:05:02;0.10;;;0.10;;
18897;SDS011;9581;49.484;8.556;2024-03-02T14:07:29;0.00;;;0.00;;
18897;SDS011;9581;49.484;8.556;2024-03-02T14:09:56;0.10;;;0.10;;
18897;SDS011;9581;49.484;8.556;2024-03-02T14:12:23;0.10;;;0.10;;
18897;SDS011;9581;49.484;8.556;2024-03-02T14:14:51;0.10;;;0.10;;
18897;SDS011;9581;49.484;8.556;2024-03-02T14:17:20;0.10;;;0.10;;
18897;SDS011;9581;49.484;8.556;2024-03-02T14:19:47;0.10;;;0.10;;
18897;SDS011;9581;49.484;8.556;2024-03-02T14:22:14;0.10;;;0.10;;
18897;SDS011;9581;49.484;8.556;2024-03-02T14:24:42;0.10;;;0.10;;
18897;SDS011;9581;49.484;8.556;2024-03-02T14:27:09;0.10;;;0.10;;
18897;SDS011;9581;49.484;8.556;2024-03-02T14:29:36;0.10;;;0.10;;
18897;SDS011;9581;49.484;8.556;2024-03-02T14:32:06;0.05;;;0.05;;
18897;SDS011;9581;49.484;8.556;2024-03-02T14:34:33;0.10;;;0.10;;
18897;SDS011;9581;49.484;8.556;2024-03-02T14:36:59;0.00;;;0.00;;
18897;SDS011;9581;49.484;8.556;2024-03-02T14:39:27;0.00;;;0.00;;
18897;SDS011;9581;49.484;8.556;2024-03-02T14:41:54;0.10;;;0.10;;
18897;SDS011;9581;49.484;8.556;2024-03-02T14:44:21;0.10;;;0.10;;
18897;SDS011;9581;49.484;8.556;2024-03-02T14:46:48;0.00;;;0.00;;
18897;SDS011;9581;49.484;8.556;2024-03-02T14:49:16;0.10;;;0.10;;
18897;SDS011;9581;49.484;8.556;2024-03-02T14:51:43;0.10;;;0.10;;
18897;SDS011;9581;49.484;8.556;2024-03-02T14:54:10;0.10;;;0.10;;
18897;SDS011;9581;49.484;8.556;2024-03-02T14:56:37;0.10;;;0.10;;
18897;SDS011;9581;49.484;8.556;2024-03-02T14:59:03;0.00;;;0.00;;
18897;SDS011;9581;49.484;8.556;2024-03-02T15:01:30;0.10;;;0.10;;
18897;SDS011;9581;49.484;8.556;2024-03-02T15:03:57;0.00;;;0.00;;
18897;SDS011;9581;49.484;8.556;2024-03-02T15:06:25;0.00;;;0.00;;
18897;SDS011;9581;49.484;8.556;2024-03-02T15:08:51;0.00;;;0.00;;